Friday, September 30, 2016, 6:00 AM EDT

KIPT, Williamsport-lycoming County

Location: Montoursville, PA, United States Lat: 41.25
Local Time: 6:00 AM EDT (10:00 GMT) Lon: -76.917
Time Zone: US/Eastern Elev: 528 ft

Show me the last for .
Show Decoded

2016-09-30 04:54 METAR KIPT 300854Z AUTO 10011KT 10SM -RA OVC023 13/11 A3027 RMK AO2 SLP251 P0005
                 60005 T01280111 55001 =
2016-09-30 03:54 METAR KIPT 300754Z AUTO 11009KT 10SM -RA OVC025 13/11 A3026 RMK AO2 RAB05E22B47
                 SLP248 P0000 T01330111 =
2016-09-30 02:54 METAR KIPT 300654Z AUTO 10010KT 10SM OVC027 14/11 A3028 RMK AO2 SLP254 T01390111
                 =
2016-09-30 01:54 METAR KIPT 300554Z AUTO 10008KT 10SM OVC024 14/11 A3028 RMK AO2 SLP253 T01440111
                 10156 20144 58003 =
2016-09-30 00:54 METAR KIPT 300454Z AUTO 09011KT 10SM OVC025 15/11 A3029 RMK AO2 SLP257 T01500111
                 401610139 =
2016-09-29 23:54 METAR KIPT 300354Z AUTO 09005KT 10SM OVC028 15/12 A3030 RMK AO2 SLP260 T01500122
                 =
2016-09-29 22:54 METAR KIPT 300254Z AUTO 06009KT 10SM OVC029 15/12 A3029 RMK AO2 SLP256 T01500122
                 58005 =
2016-09-29 22:29 METAR KIPT 300229Z 00000KT 10SM OVC029 16/12 A3030 RMK AO2 T01560117 =
2016-09-29 21:54 METAR KIPT 300154Z 02004KT 10SM OVC031 15/13 A3030 RMK AO2 SLP259 T01500128 =
2016-09-29 20:54 METAR KIPT 300054Z 00000KT 10SM BKN033 15/13 A3030 RMK AO2 SLP260 T01500128 =
2016-09-29 19:54 METAR KIPT 292354Z 00000KT 10SM OVC033 15/13 A3030 RMK AO2 SLP261 60004
                 T01500133 10161 20150 51007 =
2016-09-29 19:38 METAR KIPT 292338Z 09004KT 10SM SCT026 OVC032 16/13 A3029 RMK AO2 T01560133 =
2016-09-29 18:54 METAR KIPT 292254Z 08004KT 10SM OVC023 16/13 A3030 RMK AO2 SLP259 T01560133 =
2016-09-29 17:54 METAR KIPT 292154Z 07004KT 10SM OVC020 16/14 A3029 RMK AO2 SLP257 T01610144 =
2016-09-29 16:54 METAR KIPT 292054Z 00000KT 10SM OVC019 16/14 A3028 RMK AO2 SLP253 60004
                 T01610144 53001 =
2016-09-29 15:54 METAR KIPT 291954Z 07003KT 10SM FEW007 OVC019 16/14 A3027 RMK AO2 RAE34 SLP251
                 P0003 T01560144 =
2016-09-29 15:22 METAR KIPT 291922Z 07005KT 8SM -RA FEW007 OVC019 15/14 A3027 RMK AO2 P0003
                 T01500144 =
2016-09-29 14:54 METAR KIPT 291854Z 08006KT 7SM -RA OVC018 16/14 A3028 RMK AO2 RAB05E29B51 SLP254
                 P0001 T01560144 =
2016-09-29 13:54 METAR KIPT 291754Z 08006KT 10SM OVC017 16/14 A3028 RMK AO2 SLP252 60032
                 T01560139 10156 20144 58001 =
2016-09-29 12:54 METAR KIPT 291654Z 07005KT 10SM OVC016 16/14 A3029 RMK AO2 RAE11 SLP257 P0001
                 T01560139 =
2016-09-29 12:02 METAR KIPT 291602Z 09008KT 6SM -RA BR FEW007 BKN020 OVC029 15/14 A3027 RMK AO2
                 P0001 T01500144 =
2016-09-29 11:54 METAR KIPT 291554Z 09007KT 2 1/2SM +RA BR FEW012 BKN019 OVC029 15/14 A3028 RMK
                 AO2 SLP254 P0012 T01500144 =
2016-09-29 11:52 METAR KIPT 291552Z 09006KT 2SM +RA BR FEW012 BKN019 OVC036 15/14 A3028 RMK AO2
                 P0011 =
2016-09-29 10:54 METAR KIPT 291454Z 09006KT 10SM -RA OVC015 15/14 A3027 RMK AO2 SLP249 P0008
                 60019 T01500139 51015 =
2016-09-29 09:54 METAR KIPT 291354Z 09005KT 10SM -RA OVC016 14/14 A3026 RMK AO2 SLP246 P0004
                 T01440139 =
2016-09-29 08:54 METAR KIPT 291254Z 07005KT 6SM RA BR OVC017 14/13 A3023 RMK AO2 SLP236 P0007
                 T01440133 =
2016-09-29 07:54 METAR KIPT 291154Z 07003KT 8SM RA OVC016 14/13 A3022 RMK AO2 SLP232 P0005 60029
                 70033 T01440133 10150 20139 53004 =
2016-09-29 06:54 METAR KIPT 291054Z 07005KT 10SM -RA OVC018 14/13 A3019 RMK AO2 SLP223 P0002
                 T01390128 =

Support USWX by starting your Amazon purchase here.